Slave Lake Airport
CYZH : now visible

Airfield :











YOU CAN JOIN US ON...

 
LOGIN :

Register | Disclaimer

   EN    FR    IT 

 









Legend :    VFR   Marginal VFR   IFR   Intensive IFR   Very Intensive IFR
Visi :
Ceiling :
>= 8 km
>= 3000ft
5 to 8 km
1000 to 3000 ft
1500m to 5 km
500 to 1000 ft
800 to 1500m
200 to 500 ft
< 800m
< 200 ft
Symbols :   Thunderstorms  Fog  Heavy snow  Heavy precipitations  Wind > 20 kt






- Airport Elevation : 1912 ft
- IATA code : YZH


CYZH - Slave Lake

CURRENT METAR :
  • 080500Z AUTO 15004KT 9SM BKN080 OVC094 16/12 A2977 RMK SLP087 DENSITY ALT 2600FT

EXPIRED METARs :
  • 080400Z AUTO 11005KT 9SM FEW070 BKN085 OVC110 17/12 A2976 RMK SLP083 DENSITY ALT 2700FT
  • 080316Z AUTO 04009KT 9SM FEW042 BKN092 OVC110 18/12 A2975 RMK SLP080 DENSITY ALT 2800FT
  • 080300Z AUTO VRB02KT 9SM -RA FEW039 SCT047 BKN060 BKN099 18/15 A2975 RMK SLP081 DENSITY ALT 2800FT
  • 080233Z AUTO 33004KT 300V010 9SM -RA BKN070 OVC086 18/15 A2976 RMK SLP084 DENSITY ALT 2800FT

TAF TAF CYZH
Valid from the 08 at 01:00 until the 08 at 13:00 UTC


080042Z 0801/0813 29007KT P6SM BKN080
TEMPO 0801/0803 VRB15G25KT 5SM TSRA BR BKN040CB OVC080
FM080300 29006KT P6SM SCT020 BKN040
TEMPO 0803/0806 5SM -SHRA BR OVC020
FM080600 VRB03KT P6SM SCT008 OVC025
TEMPO 0806/0813 5SM -SHRA BR SCT004 BKN008 OVC020 RMK FCST BASED ON AUTO OBS. NXT FCST BY 080700Z
CZEG FIR / North America



MET'MAP, your aeronautical weather chart ! - Copyright ORBIFLY December 2007 - Disclaimer

ORBIFLY MET'MAP TEAM :

Programming & Development : Alexandra Zaïnal
Concept & original design : Baudouin d'Aumeries
Assistance for programming : Marc-Olivier Méhu
Technical & hardware support : Manuel Goepfert

Contact : metmap@orbifly.com




SOURCES & CREDITS :

   NOAA       Earth
Advisory